createdAt,value
2024-02-08T00:00:51.718Z,11.93
2024-02-08T00:03:19.367Z,10.38
2024-02-08T00:05:47.011Z,11.40
2024-02-08T00:08:16.005Z,14.68
2024-02-08T00:10:44.012Z,6.90
2024-02-08T00:13:14.292Z,10.02
2024-02-08T00:15:42.038Z,8.32
2024-02-08T00:18:09.920Z,9.80
2024-02-08T00:20:37.580Z,7.40
2024-02-08T00:23:05.659Z,8.65
2024-02-08T00:25:34.769Z,8.40
2024-02-08T00:28:02.490Z,10.75
2024-02-08T00:30:30.101Z,8.80
2024-02-08T00:32:57.740Z,7.15
2024-02-08T00:35:26.191Z,7.50
2024-02-08T00:37:53.913Z,6.97
2024-02-08T00:40:21.820Z,9.65
2024-02-08T00:42:50.796Z,8.77
2024-02-08T00:45:23.392Z,8.15
2024-02-08T00:47:52.504Z,7.38
2024-02-08T00:50:22.347Z,7.72
2024-02-08T00:55:17.979Z,9.25
2024-02-08T00:57:45.587Z,7.72
2024-02-08T01:00:15.574Z,6.60
2024-02-08T01:02:44.661Z,6.75
2024-02-08T01:05:12.389Z,6.68
2024-02-08T01:07:40.188Z,11.98
2024-02-08T01:10:08.983Z,7.22
2024-02-08T01:12:36.596Z,6.82
2024-02-08T01:15:05.288Z,5.82
2024-02-08T01:17:34.322Z,6.68
2024-02-08T01:20:02.670Z,8.20
2024-02-08T01:22:30.944Z,8.55
2024-02-08T01:24:58.696Z,9.75
2024-02-08T01:27:26.408Z,7.40
2024-02-08T01:29:59.971Z,7.40
2024-02-08T01:32:29.320Z,7.65
2024-02-08T01:34:59.799Z,6.47
2024-02-08T01:37:27.630Z,6.82
2024-02-08T01:39:55.256Z,7.05
2024-02-08T01:42:22.846Z,9.48
2024-02-08T01:44:56.418Z,6.38
2024-02-08T01:47:24.829Z,9.73
2024-02-08T01:49:52.568Z,7.93
2024-02-08T01:52:22.361Z,9.85
2024-02-08T01:54:50.828Z,7.68
2024-02-08T01:57:18.815Z,9.82
2024-02-08T01:59:48.901Z,8.82
2024-02-08T02:02:17.507Z,8.55
2024-02-08T02:04:45.331Z,5.30
2024-02-08T02:07:12.955Z,7.65
2024-02-08T02:09:42.076Z,11.60
2024-02-08T02:12:13.793Z,13.38
2024-02-08T02:14:41.762Z,6.78
2024-02-08T02:17:13.984Z,10.52
2024-02-08T02:19:42.044Z,6.93
2024-02-08T02:22:12.630Z,6.35
2024-02-08T02:24:41.560Z,5.60
2024-02-08T02:27:10.778Z,6.70
2024-02-08T02:29:40.369Z,5.97
2024-02-08T02:32:11.617Z,5.32
2024-02-08T02:34:42.914Z,5.00
2024-02-08T02:37:13.127Z,5.75
2024-02-08T02:42:08.409Z,7.13
2024-02-08T02:44:36.419Z,5.28
2024-02-08T02:47:05.041Z,7.40
2024-02-08T02:49:38.122Z,5.07
2024-02-08T02:52:09.305Z,4.88
2024-02-08T02:54:41.247Z,7.32
2024-02-08T02:57:09.292Z,4.90
2024-02-08T02:59:38.198Z,6.82
2024-02-08T03:02:06.100Z,6.22
2024-02-08T03:04:33.774Z,4.55
2024-02-08T03:07:01.400Z,6.18
2024-02-08T03:09:29.940Z,5.00
2024-02-08T03:11:59.512Z,5.80
2024-02-08T03:14:27.618Z,7.03
2024-02-08T03:17:01.553Z,4.05
2024-02-08T03:19:30.830Z,7.07
2024-02-08T03:21:58.506Z,5.68
2024-02-08T03:24:26.435Z,5.93
2024-02-08T03:26:56.864Z,5.07
2024-02-08T03:29:25.902Z,10.05
2024-02-08T03:31:53.888Z,5.38
2024-02-08T03:34:25.458Z,2.88
2024-02-08T03:36:53.436Z,4.85
2024-02-08T03:39:27.589Z,5.65
2024-02-08T03:41:59.199Z,4.90
2024-02-08T03:44:31.324Z,5.45
2024-02-08T03:47:06.780Z,6.00
2024-02-08T03:49:34.729Z,6.15
2024-02-08T03:52:03.182Z,4.47
2024-02-08T03:54:31.706Z,3.42
2024-02-08T03:57:06.195Z,3.63
2024-02-08T03:59:42.151Z,3.83
2024-02-08T04:04:54.889Z,3.50
2024-02-08T04:07:24.235Z,4.70
2024-02-08T04:09:57.013Z,4.97
2024-02-08T04:12:43.146Z,4.35
2024-02-08T04:15:30.500Z,3.75
2024-02-08T04:18:16.002Z,4.05
2024-02-08T04:21:01.215Z,3.33
2024-02-08T04:23:46.616Z,2.80
2024-02-08T04:26:31.922Z,4.22
2024-02-08T04:29:17.384Z,4.65
2024-02-08T04:32:05.476Z,3.05
2024-02-08T04:34:50.881Z,4.45
2024-02-08T04:37:41.652Z,3.42
2024-02-08T04:40:29.057Z,5.88
2024-02-08T04:43:15.732Z,3.45
2024-02-08T04:46:01.039Z,2.40
2024-02-08T04:48:47.864Z,2.50
2024-02-08T04:51:33.201Z,3.20
2024-02-08T04:54:03.481Z,3.38
2024-02-08T04:56:31.298Z,2.22
2024-02-08T04:59:19.972Z,3.72
2024-02-08T05:01:47.630Z,3.47
2024-02-08T05:04:22.287Z,2.40
2024-02-08T05:06:50.702Z,3.53
2024-02-08T05:09:20.555Z,2.47
2024-02-08T05:11:50.184Z,7.32
2024-02-08T05:14:20.705Z,4.00
2024-02-08T05:16:48.386Z,3.35
2024-02-08T05:19:17.444Z,3.10
2024-02-08T05:21:45.237Z,7.05
2024-02-08T05:24:14.742Z,3.38
2024-02-08T05:29:10.516Z,3.75
2024-02-08T05:31:40.786Z,3.00
2024-02-08T05:34:16.737Z,3.33
2024-02-08T05:36:50.295Z,3.03
2024-02-08T05:39:26.219Z,2.70
2024-02-08T05:41:56.928Z,3.60
2024-02-08T05:44:31.247Z,2.88
2024-02-08T05:47:09.784Z,3.05
2024-02-08T05:49:39.218Z,2.92
2024-02-08T05:52:09.320Z,5.57
2024-02-08T05:54:41.038Z,2.88
2024-02-08T05:57:12.825Z,3.50
2024-02-08T05:59:41.076Z,6.38
2024-02-08T06:02:16.528Z,2.53
2024-02-08T06:04:52.451Z,2.55
2024-02-08T06:07:22.772Z,4.78
2024-02-08T06:09:56.619Z,3.13
2024-02-08T06:12:29.851Z,3.33
2024-02-08T06:15:00.609Z,4.25
2024-02-08T06:17:33.268Z,3.72
2024-02-08T06:20:10.161Z,2.75
2024-02-08T06:22:41.056Z,3.65
2024-02-08T06:25:10.511Z,3.30
2024-02-08T06:27:38.348Z,2.38
2024-02-08T06:30:10.767Z,3.20
2024-02-08T06:32:45.062Z,2.50
2024-02-08T06:35:20.860Z,3.28
2024-02-08T06:37:57.807Z,3.88
2024-02-08T06:40:38.462Z,3.17
2024-02-08T06:43:28.468Z,3.20
2024-02-08T06:46:10.177Z,2.35
2024-02-08T06:48:49.756Z,3.25
2024-02-08T06:51:46.890Z,3.63
2024-02-08T06:54:33.862Z,4.68
2024-02-08T06:57:19.206Z,3.15
2024-02-08T07:00:04.617Z,5.70
2024-02-08T07:02:50.133Z,3.38
2024-02-08T07:05:35.587Z,5.18
2024-02-08T07:08:20.899Z,3.58
2024-02-08T07:11:07.209Z,3.20
2024-02-08T07:13:52.635Z,3.00
2024-02-08T07:16:38.087Z,2.65
2024-02-08T07:19:23.714Z,3.13
2024-02-08T07:22:09.066Z,4.03
2024-02-08T07:24:54.176Z,3.85
2024-02-08T07:27:42.052Z,3.97
2024-02-08T07:30:28.554Z,2.85
2024-02-08T07:33:13.941Z,4.03
2024-02-08T07:35:59.474Z,5.25
2024-02-08T07:38:54.804Z,3.55
2024-02-08T07:41:22.521Z,2.97
2024-02-08T07:43:56.027Z,4.90
2024-02-08T07:46:31.777Z,6.03
2024-02-08T07:49:06.164Z,3.28
2024-02-08T07:51:35.054Z,3.75
2024-02-08T07:54:11.604Z,3.30
2024-02-08T07:56:47.326Z,2.35
2024-02-08T07:59:18.182Z,2.85
2024-02-08T08:01:51.526Z,2.38
2024-02-08T08:04:43.696Z,3.22
2024-02-08T08:07:13.758Z,3.03
2024-02-08T08:09:42.631Z,3.03
2024-02-08T08:12:10.447Z,3.33
2024-02-08T08:14:53.430Z,2.33
2024-02-08T08:17:40.870Z,3.03
2024-02-08T08:20:37.830Z,3.70
2024-02-08T08:23:09.399Z,2.25
2024-02-08T08:26:01.246Z,3.17
2024-02-08T08:28:42.254Z,2.42
2024-02-08T08:31:31.455Z,5.00
2024-02-08T08:34:05.272Z,2.63
2024-02-08T08:36:35.829Z,2.47
2024-02-08T08:39:21.053Z,1.83
2024-02-08T08:41:50.058Z,3.40
2024-02-08T08:44:19.703Z,2.88
2024-02-08T08:46:49.169Z,2.38
2024-02-08T08:49:22.161Z,2.00
2024-02-08T08:51:59.808Z,1.48
2024-02-08T08:54:30.555Z,3.15
2024-02-08T08:56:58.958Z,1.83
2024-02-08T08:59:28.207Z,2.00
2024-02-08T09:02:01.779Z,2.25
2024-02-08T09:04:34.269Z,1.40
2024-02-08T09:07:11.654Z,1.40
2024-02-08T09:10:02.608Z,3.05
2024-02-08T09:12:37.792Z,1.63
2024-02-08T09:15:20.521Z,2.63
2024-02-08T09:17:59.473Z,1.67
2024-02-08T09:20:30.050Z,2.92
2024-02-08T09:22:59.213Z,3.55
2024-02-08T09:25:35.487Z,3.25
2024-02-08T09:28:25.770Z,2.83
2024-02-08T09:30:55.085Z,4.00
2024-02-08T09:33:46.924Z,2.33
2024-02-08T09:36:16.164Z,2.67
2024-02-08T09:38:51.972Z,1.58
2024-02-08T09:41:25.447Z,1.88
2024-02-08T09:43:57.668Z,1.30
2024-02-08T09:46:45.562Z,2.22
2024-02-08T09:49:16.237Z,2.70
2024-02-08T09:51:53.431Z,2.92
2024-02-08T09:54:28.592Z,2.10
2024-02-08T09:57:02.394Z,6.38
2024-02-08T10:00:00.867Z,2.80
2024-02-08T10:02:35.400Z,2.10
2024-02-08T10:05:19.901Z,2.20
2024-02-08T10:08:06.251Z,2.75
2024-02-08T10:10:44.947Z,1.30
2024-02-08T10:13:28.143Z,1.67
2024-02-08T10:15:57.832Z,2.45
2024-02-08T10:18:35.035Z,1.30
2024-02-08T10:21:15.455Z,1.80
2024-02-08T10:23:49.622Z,1.85
2024-02-08T10:26:28.070Z,1.48
2024-02-08T10:28:57.230Z,1.52
2024-02-08T10:31:25.250Z,1.95
2024-02-08T10:33:58.929Z,2.08
2024-02-08T10:36:36.569Z,1.88
2024-02-08T10:39:24.895Z,2.20
2024-02-08T10:42:00.223Z,1.70
2024-02-08T10:44:30.923Z,2.15
2024-02-08T10:47:07.438Z,1.85
2024-02-08T10:49:45.945Z,2.13
2024-02-08T10:52:22.452Z,2.78
2024-02-08T10:54:52.938Z,1.98
2024-02-08T10:57:58.399Z,1.60
2024-02-08T11:00:42.052Z,3.10
2024-02-08T11:03:15.997Z,1.92
2024-02-08T11:06:01.640Z,2.53
2024-02-08T11:08:35.655Z,4.15
2024-02-08T11:11:10.607Z,1.55
2024-02-08T11:13:41.652Z,1.73
2024-02-08T11:16:21.050Z,1.75
2024-02-08T11:18:52.677Z,1.40
2024-02-08T11:21:25.480Z,2.08
2024-02-08T11:23:54.948Z,2.05
2024-02-08T11:26:27.102Z,2.25
2024-02-08T11:29:06.244Z,2.28
2024-02-08T11:31:42.886Z,2.85
2024-02-08T11:34:15.412Z,2.22
2024-02-08T11:36:44.592Z,2.63
2024-02-08T11:39:33.003Z,3.00
2024-02-08T11:42:06.455Z,1.65
2024-02-08T11:44:38.404Z,1.98
2024-02-08T11:47:20.232Z,1.63
2024-02-08T11:49:55.396Z,2.33
2024-02-08T11:52:25.197Z,2.10
2024-02-08T11:55:10.303Z,2.58
2024-02-08T11:57:42.779Z,3.22
2024-02-08T12:00:18.625Z,1.88
2024-02-08T12:02:49.458Z,1.60
2024-02-08T12:05:21.559Z,2.08
2024-02-08T12:07:49.865Z,1.58
2024-02-08T12:10:23.182Z,2.97
2024-02-08T12:12:54.350Z,2.80
2024-02-08T12:15:22.970Z,1.38
2024-02-08T12:17:54.056Z,1.23
2024-02-08T12:20:22.047Z,2.45
2024-02-08T12:22:56.469Z,2.38
2024-02-08T12:25:28.947Z,1.67
2024-02-08T12:27:59.104Z,1.83
2024-02-08T12:30:29.566Z,1.90
2024-02-08T12:32:57.672Z,1.92
2024-02-08T12:35:27.418Z,1.38
2024-02-08T12:37:59.916Z,2.08
2024-02-08T12:40:30.719Z,2.20
2024-02-08T12:42:58.867Z,2.15
2024-02-08T12:45:29.793Z,2.63
2024-02-08T12:47:59.030Z,2.13
2024-02-08T12:50:28.832Z,2.30
2024-02-08T12:52:58.927Z,2.90
2024-02-08T12:55:31.466Z,1.17
2024-02-08T12:58:02.987Z,1.40
2024-02-08T13:00:34.686Z,1.40
2024-02-08T13:03:07.013Z,1.45
2024-02-08T13:05:39.453Z,2.33
2024-02-08T13:08:09.255Z,1.85
2024-02-08T13:10:41.085Z,1.90
2024-02-08T13:13:12.685Z,0.93
2024-02-08T13:15:43.154Z,2.15
2024-02-08T13:18:14.616Z,1.60
2024-02-08T13:20:44.656Z,1.65
2024-02-08T13:23:13.231Z,2.17
2024-02-08T13:25:44.119Z,1.92
2024-02-08T13:28:12.535Z,1.92
2024-02-08T13:30:41.430Z,2.10
2024-02-08T13:33:11.937Z,1.55
2024-02-08T13:35:42.817Z,3.25
2024-02-08T13:38:12.878Z,3.20
2024-02-08T13:40:45.843Z,2.45
2024-02-08T13:43:15.341Z,2.55
2024-02-08T13:45:43.730Z,4.95
2024-02-08T13:48:16.155Z,2.20
2024-02-08T13:50:45.187Z,3.88
2024-02-08T13:53:16.061Z,3.38
2024-02-08T13:55:53.837Z,2.80
2024-02-08T13:58:25.816Z,3.97
2024-02-08T14:00:56.089Z,2.63
2024-02-08T14:03:25.801Z,3.42
2024-02-08T14:05:56.764Z,3.67
2024-02-08T14:08:28.916Z,3.15
2024-02-08T14:10:59.364Z,4.00
2024-02-08T14:13:37.078Z,2.45
2024-02-08T14:16:15.635Z,4.13
2024-02-08T14:18:50.602Z,2.20
2024-02-08T14:21:21.672Z,2.85
2024-02-08T14:23:52.468Z,2.92
2024-02-08T14:26:35.098Z,3.22
2024-02-08T14:29:05.496Z,2.78
2024-02-08T14:31:38.645Z,4.70
2024-02-08T14:34:09.955Z,1.75
2024-02-08T14:36:43.370Z,2.25
2024-02-08T14:39:28.632Z,2.67
2024-02-08T14:41:59.841Z,4.80
2024-02-08T14:44:32.878Z,3.17
2024-02-08T14:47:00.932Z,4.43
2024-02-08T14:49:30.415Z,4.25
2024-02-08T14:52:03.922Z,2.95
2024-02-08T14:54:32.823Z,3.63
2024-02-08T14:57:10.946Z,2.50
2024-02-08T14:59:51.254Z,5.15
2024-02-08T15:02:24.119Z,2.58
2024-02-08T15:04:55.090Z,2.50
2024-02-08T15:07:45.609Z,2.95
2024-02-08T15:10:15.294Z,2.22
2024-02-08T15:12:53.371Z,1.92
2024-02-08T15:15:31.915Z,3.10
2024-02-08T15:18:12.633Z,2.97
2024-02-08T15:20:45.914Z,5.22
2024-02-08T15:23:13.209Z,2.67
2024-02-08T15:25:45.634Z,3.88
2024-02-08T15:28:35.435Z,3.05
2024-02-08T15:31:17.911Z,7.70
2024-02-08T15:34:09.607Z,2.85
2024-02-08T15:36:48.983Z,7.28
2024-02-08T15:39:50.679Z,3.10
2024-02-08T15:42:33.548Z,3.17
2024-02-08T15:45:11.644Z,2.78
2024-02-08T15:47:56.144Z,5.10
2024-02-08T15:50:36.320Z,3.88
2024-02-08T15:53:10.133Z,4.13
2024-02-08T15:55:43.753Z,2.80
2024-02-08T15:58:29.199Z,5.75
2024-02-08T16:01:18.041Z,3.78
2024-02-08T16:03:56.751Z,4.20
2024-02-08T16:06:39.759Z,4.45
2024-02-08T16:09:08.944Z,3.35
2024-02-08T16:11:36.752Z,2.72
2024-02-08T16:14:17.000Z,6.68
2024-02-08T16:17:06.588Z,5.88
2024-02-08T16:19:43.492Z,7.18
2024-02-08T16:22:20.629Z,8.95
2024-02-08T16:24:50.557Z,6.18
2024-02-08T16:27:20.384Z,10.73
2024-02-08T16:32:36.491Z,8.85
2024-02-08T16:35:25.127Z,8.05
2024-02-08T16:40:30.254Z,5.43
2024-02-08T16:43:11.660Z,5.28
2024-02-08T16:45:45.709Z,7.30
2024-02-08T16:48:24.749Z,6.15
2024-02-08T16:50:58.294Z,2.55
2024-02-08T16:53:27.874Z,3.30
2024-02-08T16:55:59.859Z,4.55
2024-02-08T16:58:33.293Z,4.45
2024-02-08T17:01:06.029Z,7.88
2024-02-08T17:04:00.974Z,5.95
2024-02-08T17:06:35.569Z,7.05
2024-02-08T17:09:16.951Z,2.75
2024-02-08T17:11:45.826Z,7.00
2024-02-08T17:14:34.750Z,4.47
2024-02-08T17:17:09.932Z,6.32
2024-02-08T17:19:58.617Z,9.50
2024-02-08T17:22:46.863Z,3.85
2024-02-08T17:25:26.507Z,5.90
2024-02-08T17:28:15.725Z,5.15
2024-02-08T17:31:01.388Z,5.65
2024-02-08T17:33:31.813Z,3.40
2024-02-08T17:36:01.738Z,5.88
2024-02-08T17:38:40.505Z,9.55
2024-02-08T17:41:15.119Z,6.65
2024-02-08T17:43:50.742Z,6.72
2024-02-08T17:46:22.366Z,4.65
2024-02-08T17:48:51.861Z,5.13
2024-02-08T17:51:32.768Z,5.95
2024-02-08T17:54:01.752Z,5.78
2024-02-08T17:56:33.113Z,8.02
2024-02-08T18:01:49.472Z,7.90
2024-02-08T18:04:18.481Z,4.85
2024-02-08T18:06:50.462Z,8.80
2024-02-08T18:09:18.727Z,4.75
2024-02-08T18:11:50.894Z,5.43
2024-02-08T18:14:19.274Z,8.63
2024-02-08T18:16:48.002Z,8.30
2024-02-08T18:19:16.679Z,5.18
2024-02-08T18:21:46.078Z,5.93
2024-02-08T18:24:15.001Z,3.63
2024-02-08T18:26:45.394Z,6.05
2024-02-08T18:29:14.222Z,6.22
2024-02-08T18:31:47.765Z,9.50
2024-02-08T18:34:16.551Z,6.43
2024-02-08T18:36:46.293Z,10.15
2024-02-08T18:44:24.168Z,6.60
2024-02-08T18:46:53.481Z,8.85
2024-02-08T18:49:22.858Z,4.65
2024-02-08T18:51:50.738Z,4.13
2024-02-08T18:54:29.775Z,6.55
2024-02-08T18:57:00.085Z,5.78
2024-02-08T18:59:27.698Z,3.55
2024-02-08T19:02:05.268Z,10.00
2024-02-08T19:04:33.767Z,5.43
2024-02-08T19:07:02.047Z,4.10
2024-02-08T19:09:32.202Z,5.15
2024-02-08T19:11:59.848Z,4.55
2024-02-08T19:14:27.959Z,6.00
2024-02-08T19:16:55.690Z,5.15
2024-02-08T19:19:24.294Z,7.55
2024-02-08T19:21:54.604Z,6.28
2024-02-08T19:24:23.664Z,7.25
2024-02-08T19:26:52.689Z,8.00
2024-02-08T19:29:25.384Z,6.25
2024-02-08T19:31:53.367Z,10.77
2024-02-08T19:34:22.470Z,8.88
2024-02-08T19:36:54.218Z,4.63
2024-02-08T19:39:37.439Z,9.45
2024-02-08T19:42:19.046Z,13.23
2024-02-08T19:44:53.920Z,9.60
2024-02-08T19:50:02.807Z,4.75
2024-02-08T19:52:35.941Z,13.57
2024-02-08T19:55:04.657Z,11.05
2024-02-08T19:57:40.752Z,9.65
2024-02-08T20:00:18.395Z,5.45
2024-02-08T20:02:48.034Z,9.25
2024-02-08T20:05:15.895Z,7.65
2024-02-08T20:07:45.447Z,7.75
2024-02-08T20:10:14.448Z,4.75
2024-02-08T20:12:45.680Z,3.70
2024-02-08T20:15:22.470Z,9.73
2024-02-08T20:17:52.043Z,9.23
2024-02-08T20:20:22.165Z,5.85
2024-02-08T20:22:53.053Z,10.13
2024-02-08T20:25:26.147Z,5.07
2024-02-08T20:27:58.085Z,20.70
2024-02-08T20:30:26.316Z,11.13
2024-02-08T20:32:54.782Z,6.65
2024-02-08T20:35:22.471Z,10.52
2024-02-08T20:37:52.734Z,10.35
2024-02-08T20:40:23.298Z,10.88
2024-02-08T20:42:54.804Z,5.80
2024-02-08T20:45:28.023Z,10.80
2024-02-08T20:47:55.865Z,7.43
2024-02-08T20:50:25.680Z,12.07
2024-02-08T20:55:26.006Z,10.90
2024-02-08T20:57:54.368Z,9.38
2024-02-08T21:00:23.914Z,10.68
2024-02-08T21:02:54.207Z,5.32
2024-02-08T21:05:23.955Z,9.05
2024-02-08T21:07:51.664Z,6.82
2024-02-08T21:10:23.636Z,10.20
2024-02-08T21:12:51.440Z,9.55
2024-02-08T21:15:20.131Z,10.75
2024-02-08T21:17:48.147Z,10.88
2024-02-08T21:20:17.960Z,6.47
2024-02-08T21:22:47.740Z,12.57
2024-02-08T21:25:19.803Z,9.07
2024-02-08T21:27:53.384Z,6.13
2024-02-08T21:30:21.838Z,8.90
2024-02-08T21:32:50.482Z,6.60
2024-02-08T21:35:20.157Z,12.82
2024-02-08T21:37:48.236Z,17.88
2024-02-08T21:40:16.350Z,12.57
2024-02-08T21:42:45.701Z,6.88
2024-02-08T21:45:16.390Z,9.40
2024-02-08T21:47:43.980Z,13.95
2024-02-08T21:50:12.013Z,12.48
2024-02-08T21:52:41.193Z,10.68
2024-02-08T21:55:09.589Z,10.07
2024-02-08T21:57:37.428Z,7.03
2024-02-08T22:00:12.358Z,8.65
2024-02-08T22:02:41.651Z,12.50
2024-02-08T22:05:11.215Z,4.68
2024-02-08T22:07:40.279Z,6.97
2024-02-08T22:10:13.316Z,10.07
2024-02-08T22:12:46.164Z,10.00
2024-02-08T22:15:18.989Z,11.02
2024-02-08T22:17:48.614Z,11.95
2024-02-08T22:20:17.197Z,10.68
2024-02-08T22:22:46.438Z,11.50
2024-02-08T22:25:18.030Z,9.40
2024-02-08T22:27:46.593Z,13.75
2024-02-08T22:30:15.888Z,12.15
2024-02-08T22:32:45.499Z,9.43
2024-02-08T22:35:13.358Z,10.15
2024-02-08T22:37:43.834Z,12.75
2024-02-08T22:40:12.420Z,12.00
2024-02-08T22:42:42.619Z,13.18
2024-02-08T22:45:12.699Z,9.10
2024-02-08T22:47:41.205Z,7.13
2024-02-08T22:50:13.674Z,13.13
2024-02-08T22:52:42.696Z,14.73
2024-02-08T22:55:12.442Z,17.30
2024-02-08T23:00:23.839Z,9.68
2024-02-08T23:02:52.011Z,11.52
2024-02-08T23:05:19.986Z,13.75
2024-02-08T23:07:48.646Z,7.43
2024-02-08T23:10:19.368Z,10.95
2024-02-08T23:12:49.299Z,14.52
2024-02-08T23:17:51.876Z,10.00
2024-02-08T23:20:20.006Z,12.90
2024-02-08T23:22:48.802Z,10.90
2024-02-08T23:25:18.117Z,7.40
2024-02-08T23:27:49.035Z,9.75
2024-02-08T23:30:19.801Z,10.02
2024-02-08T23:32:52.648Z,7.25
2024-02-08T23:35:23.772Z,13.10
2024-02-08T23:37:56.711Z,16.05
2024-02-08T23:40:27.807Z,8.02
2024-02-08T23:42:57.255Z,14.38
2024-02-08T23:45:26.443Z,10.70
2024-02-08T23:47:56.108Z,8.55
2024-02-08T23:50:25.263Z,12.32
2024-02-08T23:52:54.244Z,13.88
2024-02-08T23:55:24.490Z,18.77
2024-02-08T23:57:52.212Z,8.30
